sensor_id;sensor_type;location;lat;lon;timestamp;temperature;humidity
4578;DHT22;2301;47.354;8.528;2023-02-15T00:01:36;10.60;87.30
4578;DHT22;2301;47.354;8.528;2023-02-15T00:04:03;10.70;87.40
4578;DHT22;2301;47.354;8.528;2023-02-15T00:06:33;10.70;86.60
4578;DHT22;2301;47.354;8.528;2023-02-15T00:09:02;10.60;86.10
4578;DHT22;2301;47.354;8.528;2023-02-15T00:11:31;10.60;86.30
4578;DHT22;2301;47.354;8.528;2023-02-15T00:14:10;10.70;87.10
4578;DHT22;2301;47.354;8.528;2023-02-15T00:16:39;10.80;86.00
4578;DHT22;2301;47.354;8.528;2023-02-15T00:19:07;10.80;85.70
4578;DHT22;2301;47.354;8.528;2023-02-15T00:21:36;10.80;85.40
4578;DHT22;2301;47.354;8.528;2023-02-15T00:24:04;10.80;85.70
4578;DHT22;2301;47.354;8.528;2023-02-15T00:26:32;10.80;85.10
4578;DHT22;2301;47.354;8.528;2023-02-15T00:28:59;10.80;83.80
4578;DHT22;2301;47.354;8.528;2023-02-15T00:31:27;10.60;82.80
4578;DHT22;2301;47.354;8.528;2023-02-15T00:34:01;10.50;83.10
4578;DHT22;2301;47.354;8.528;2023-02-15T00:36:28;10.40;83.30
4578;DHT22;2301;47.354;8.528;2023-02-15T00:38:55;10.40;83.80
4578;DHT22;2301;47.354;8.528;2023-02-15T00:41:22;10.50;84.10
4578;DHT22;2301;47.354;8.528;2023-02-15T00:43:49;10.50;84.10
4578;DHT22;2301;47.354;8.528;2023-02-15T00:46:16;10.50;82.30
4578;DHT22;2301;47.354;8.528;2023-02-15T00:48:43;10.50;83.60
4578;DHT22;2301;47.354;8.528;2023-02-15T00:51:11;10.60;83.70
4578;DHT22;2301;47.354;8.528;2023-02-15T00:53:38;10.70;84.00
4578;DHT22;2301;47.354;8.528;2023-02-15T00:56:05;10.60;82.70
4578;DHT22;2301;47.354;8.528;2023-02-15T00:58:32;10.70;83.00
4578;DHT22;2301;47.354;8.528;2023-02-15T01:01:03;10.60;82.70
4578;DHT22;2301;47.354;8.528;2023-02-15T01:03:32;10.70;82.30
4578;DHT22;2301;47.354;8.528;2023-02-15T01:05:59;10.70;82.80
4578;DHT22;2301;47.354;8.528;2023-02-15T01:08:28;10.80;82.30
4578;DHT22;2301;47.354;8.528;2023-02-15T01:10:55;10.80;81.60
4578;DHT22;2301;47.354;8.528;2023-02-15T01:13:22;10.60;80.20
4578;DHT22;2301;47.354;8.528;2023-02-15T01:15:53;10.50;79.80
4578;DHT22;2301;47.354;8.528;2023-02-15T01:18:21;10.40;80.50
4578;DHT22;2301;47.354;8.528;2023-02-15T01:20:49;10.30;81.00
4578;DHT22;2301;47.354;8.528;2023-02-15T01:23:16;10.30;80.90
4578;DHT22;2301;47.354;8.528;2023-02-15T01:25:44;10.30;81.00
4578;DHT22;2301;47.354;8.528;2023-02-15T01:28:11;10.30;80.20
4578;DHT22;2301;47.354;8.528;2023-02-15T01:30:38;10.30;80.50
4578;DHT22;2301;47.354;8.528;2023-02-15T01:33:05;10.20;79.50
4578;DHT22;2301;47.354;8.528;2023-02-15T01:35:32;10.20;79.70
4578;DHT22;2301;47.354;8.528;2023-02-15T01:37:59;10.10;79.70
4578;DHT22;2301;47.354;8.528;2023-02-15T01:40:26;10.20;80.70
4578;DHT22;2301;47.354;8.528;2023-02-15T01:42:55;10.10;80.00
4578;DHT22;2301;47.354;8.528;2023-02-15T01:45:24;10.10;79.90
4578;DHT22;2301;47.354;8.528;2023-02-15T01:47:55;10.20;81.00
4578;DHT22;2301;47.354;8.528;2023-02-15T01:50:27;10.20;80.50
4578;DHT22;2301;47.354;8.528;2023-02-15T01:52:58;10.30;81.10
4578;DHT22;2301;47.354;8.528;2023-02-15T01:55:32;10.20;80.00
4578;DHT22;2301;47.354;8.528;2023-02-15T01:58:01;10.20;80.40
4578;DHT22;2301;47.354;8.528;2023-02-15T02:00:29;10.20;80.90
4578;DHT22;2301;47.354;8.528;2023-02-15T02:02:56;10.30;81.10
4578;DHT22;2301;47.354;8.528;2023-02-15T02:05:24;10.40;80.50
4578;DHT22;2301;47.354;8.528;2023-02-15T02:07:54;10.30;79.70
4578;DHT22;2301;47.354;8.528;2023-02-15T02:10:24;10.40;79.70
4578;DHT22;2301;47.354;8.528;2023-02-15T02:12:56;10.20;79.50
4578;DHT22;2301;47.354;8.528;2023-02-15T02:15:33;10.20;80.00
4578;DHT22;2301;47.354;8.528;2023-02-15T02:18:17;10.30;79.50
4578;DHT22;2301;47.354;8.528;2023-02-15T02:21:02;10.30;79.00
4578;DHT22;2301;47.354;8.528;2023-02-15T02:23:41;10.20;78.40
4578;DHT22;2301;47.354;8.528;2023-02-15T02:26:51;10.10;77.30
4578;DHT22;2301;47.354;8.528;2023-02-15T02:35:23;10.10;79.20
4578;DHT22;2301;47.354;8.528;2023-02-15T02:38:00;10.10;79.00
4578;DHT22;2301;47.354;8.528;2023-02-15T02:40:41;10.00;77.80
4578;DHT22;2301;47.354;8.528;2023-02-15T02:43:15;10.00;78.30
4578;DHT22;2301;47.354;8.528;2023-02-15T02:45:48;10.10;79.60
4578;DHT22;2301;47.354;8.528;2023-02-15T02:48:19;10.00;77.90
4578;DHT22;2301;47.354;8.528;2023-02-15T02:50:50;10.00;78.50
4578;DHT22;2301;47.354;8.528;2023-02-15T02:53:16;9.90;79.50
4578;DHT22;2301;47.354;8.528;2023-02-15T02:55:46;10.00;79.10
4578;DHT22;2301;47.354;8.528;2023-02-15T02:58:16;10.00;78.60
4578;DHT22;2301;47.354;8.528;2023-02-15T03:00:47;10.00;78.90
4578;DHT22;2301;47.354;8.528;2023-02-15T03:03:20;9.90;78.80
4578;DHT22;2301;47.354;8.528;2023-02-15T03:05:53;9.90;79.40
4578;DHT22;2301;47.354;8.528;2023-02-15T03:08:21;9.90;79.30
4578;DHT22;2301;47.354;8.528;2023-02-15T03:10:53;9.80;78.00
4578;DHT22;2301;47.354;8.528;2023-02-15T03:13:21;9.80;79.70
4578;DHT22;2301;47.354;8.528;2023-02-15T03:15:50;9.90;80.60
4578;DHT22;2301;47.354;8.528;2023-02-15T03:18:39;9.90;79.20
4578;DHT22;2301;47.354;8.528;2023-02-15T03:21:10;9.90;79.20
4578;DHT22;2301;47.354;8.528;2023-02-15T03:23:50;9.80;79.40
4578;DHT22;2301;47.354;8.528;2023-02-15T03:26:20;9.90;79.70
4578;DHT22;2301;47.354;8.528;2023-02-15T03:28:50;9.90;79.10
4578;DHT22;2301;47.354;8.528;2023-02-15T03:31:21;9.90;77.70
4578;DHT22;2301;47.354;8.528;2023-02-15T03:33:53;9.80;77.80
4578;DHT22;2301;47.354;8.528;2023-02-15T03:36:26;9.70;76.50
4578;DHT22;2301;47.354;8.528;2023-02-15T03:38:59;9.60;76.50
4578;DHT22;2301;47.354;8.528;2023-02-15T03:41:33;9.50;76.30
4578;DHT22;2301;47.354;8.528;2023-02-15T03:44:05;9.40;76.50
4578;DHT22;2301;47.354;8.528;2023-02-15T03:46:35;9.40;76.90
4578;DHT22;2301;47.354;8.528;2023-02-15T03:49:06;9.20;77.30
4578;DHT22;2301;47.354;8.528;2023-02-15T03:51:37;9.20;78.90
4578;DHT22;2301;47.354;8.528;2023-02-15T03:54:08;9.30;78.60
4578;DHT22;2301;47.354;8.528;2023-02-15T03:56:37;9.30;79.80
4578;DHT22;2301;47.354;8.528;2023-02-15T03:59:05;9.40;80.60
4578;DHT22;2301;47.354;8.528;2023-02-15T04:01:58;9.50;80.00
4578;DHT22;2301;47.354;8.528;2023-02-15T04:04:33;9.50;79.10
4578;DHT22;2301;47.354;8.528;2023-02-15T04:07:04;9.40;78.60
4578;DHT22;2301;47.354;8.528;2023-02-15T04:09:31;9.40;79.90
4578;DHT22;2301;47.354;8.528;2023-02-15T04:12:15;9.60;80.40
4578;DHT22;2301;47.354;8.528;2023-02-15T04:14:43;9.60;80.20
4578;DHT22;2301;47.354;8.528;2023-02-15T04:17:27;9.70;80.10
4578;DHT22;2301;47.354;8.528;2023-02-15T04:19:54;9.70;78.90
4578;DHT22;2301;47.354;8.528;2023-02-15T04:22:40;9.60;79.40
4578;DHT22;2301;47.354;8.528;2023-02-15T04:25:25;9.70;78.30
4578;DHT22;2301;47.354;8.528;2023-02-15T04:27:53;9.60;78.50
4578;DHT22;2301;47.354;8.528;2023-02-15T04:30:22;9.70;79.60
4578;DHT22;2301;47.354;8.528;2023-02-15T04:32:50;9.60;78.90
4578;DHT22;2301;47.354;8.528;2023-02-15T04:35:17;9.70;79.60
4578;DHT22;2301;47.354;8.528;2023-02-15T04:37:45;9.70;79.30
4578;DHT22;2301;47.354;8.528;2023-02-15T04:40:14;9.80;79.40
4578;DHT22;2301;47.354;8.528;2023-02-15T04:42:41;9.90;79.00
4578;DHT22;2301;47.354;8.528;2023-02-15T04:45:08;9.80;78.10
4578;DHT22;2301;47.354;8.528;2023-02-15T04:47:35;9.80;77.60
4578;DHT22;2301;47.354;8.528;2023-02-15T04:50:03;9.80;78.50
4578;DHT22;2301;47.354;8.528;2023-02-15T04:52:30;9.90;78.90
4578;DHT22;2301;47.354;8.528;2023-02-15T04:54:58;9.90;78.30
4578;DHT22;2301;47.354;8.528;2023-02-15T04:57:25;9.90;78.60
4578;DHT22;2301;47.354;8.528;2023-02-15T04:59:52;10.00;77.10
4578;DHT22;2301;47.354;8.528;2023-02-15T05:02:19;10.00;77.20
4578;DHT22;2301;47.354;8.528;2023-02-15T05:04:46;10.00;76.40
4578;DHT22;2301;47.354;8.528;2023-02-15T05:07:13;10.00;76.40
4578;DHT22;2301;47.354;8.528;2023-02-15T05:09:41;9.90;77.30
4578;DHT22;2301;47.354;8.528;2023-02-15T05:12:09;9.90;77.10
4578;DHT22;2301;47.354;8.528;2023-02-15T05:14:36;10.00;76.70
4578;DHT22;2301;47.354;8.528;2023-02-15T05:17:03;10.00;77.00
4578;DHT22;2301;47.354;8.528;2023-02-15T05:19:31;10.00;76.80
4578;DHT22;2301;47.354;8.528;2023-02-15T05:21:58;10.00;76.40
4578;DHT22;2301;47.354;8.528;2023-02-15T05:24:25;10.00;76.10
4578;DHT22;2301;47.354;8.528;2023-02-15T05:27:12;9.90;76.10
4578;DHT22;2301;47.354;8.528;2023-02-15T05:29:57;9.70;76.30
4578;DHT22;2301;47.354;8.528;2023-02-15T05:32:24;9.70;77.40
4578;DHT22;2301;47.354;8.528;2023-02-15T05:34:51;9.60;75.50
4578;DHT22;2301;47.354;8.528;2023-02-15T05:37:18;9.40;75.00
4578;DHT22;2301;47.354;8.528;2023-02-15T05:39:45;9.40;76.20
4578;DHT22;2301;47.354;8.528;2023-02-15T05:42:13;9.20;76.70
4578;DHT22;2301;47.354;8.528;2023-02-15T05:44:40;9.20;78.30
4578;DHT22;2301;47.354;8.528;2023-02-15T05:47:07;9.30;79.40
4578;DHT22;2301;47.354;8.528;2023-02-15T05:49:34;9.50;80.00
4578;DHT22;2301;47.354;8.528;2023-02-15T05:52:02;9.70;79.60
4578;DHT22;2301;47.354;8.528;2023-02-15T05:54:29;9.70;77.40
4578;DHT22;2301;47.354;8.528;2023-02-15T05:56:56;9.60;77.00
4578;DHT22;2301;47.354;8.528;2023-02-15T05:59:25;9.60;77.90
4578;DHT22;2301;47.354;8.528;2023-02-15T06:01:52;9.70;78.50
4578;DHT22;2301;47.354;8.528;2023-02-15T06:04:19;9.70;78.50
4578;DHT22;2301;47.354;8.528;2023-02-15T06:06:45;9.70;77.90
4578;DHT22;2301;47.354;8.528;2023-02-15T06:09:13;9.80;77.60
4578;DHT22;2301;47.354;8.528;2023-02-15T06:11:40;9.70;76.80
4578;DHT22;2301;47.354;8.528;2023-02-15T06:14:08;9.70;77.40
4578;DHT22;2301;47.354;8.528;2023-02-15T06:16:41;9.60;77.10
4578;DHT22;2301;47.354;8.528;2023-02-15T06:19:10;9.50;76.50
4578;DHT22;2301;47.354;8.528;2023-02-15T06:21:37;9.50;76.50
4578;DHT22;2301;47.354;8.528;2023-02-15T06:24:04;9.40;75.80
4578;DHT22;2301;47.354;8.528;2023-02-15T06:26:31;9.30;76.30
4578;DHT22;2301;47.354;8.528;2023-02-15T06:28:58;9.20;76.10
4578;DHT22;2301;47.354;8.528;2023-02-15T06:31:25;9.20;76.40
4578;DHT22;2301;47.354;8.528;2023-02-15T06:33:53;9.10;76.50
4578;DHT22;2301;47.354;8.528;2023-02-15T06:36:26;8.90;75.20
4578;DHT22;2301;47.354;8.528;2023-02-15T06:38:53;8.80;76.70
4578;DHT22;2301;47.354;8.528;2023-02-15T06:41:20;8.80;77.10
4578;DHT22;2301;47.354;8.528;2023-02-15T06:43:47;8.90;77.60
4578;DHT22;2301;47.354;8.528;2023-02-15T06:46:14;8.80;77.40
4578;DHT22;2301;47.354;8.528;2023-02-15T06:48:40;8.80;77.20
4578;DHT22;2301;47.354;8.528;2023-02-15T06:51:09;8.80;77.50
4578;DHT22;2301;47.354;8.528;2023-02-15T06:53:36;8.70;76.30
4578;DHT22;2301;47.354;8.528;2023-02-15T06:56:04;8.60;77.30
4578;DHT22;2301;47.354;8.528;2023-02-15T06:58:32;8.70;78.10
4578;DHT22;2301;47.354;8.528;2023-02-15T07:00:59;8.70;78.70
4578;DHT22;2301;47.354;8.528;2023-02-15T07:03:26;8.80;79.20
4578;DHT22;2301;47.354;8.528;2023-02-15T07:05:54;9.00;79.30
4578;DHT22;2301;47.354;8.528;2023-02-15T07:08:23;9.10;79.70
4578;DHT22;2301;47.354;8.528;2023-02-15T07:10:52;9.30;78.40
4578;DHT22;2301;47.354;8.528;2023-02-15T07:13:42;9.30;77.40
4578;DHT22;2301;47.354;8.528;2023-02-15T07:16:09;9.20;76.60
4578;DHT22;2301;47.354;8.528;2023-02-15T07:18:36;9.10;75.60
4578;DHT22;2301;47.354;8.528;2023-02-15T07:21:03;9.00;76.20
4578;DHT22;2301;47.354;8.528;2023-02-15T07:23:31;9.90;81.80
4578;DHT22;2301;47.354;8.528;2023-02-15T07:25:58;9.60;72.50
4578;DHT22;2301;47.354;8.528;2023-02-15T07:28:26;9.10;69.00
4578;DHT22;2301;47.354;8.528;2023-02-15T07:30:53;8.60;67.90
4578;DHT22;2301;47.354;8.528;2023-02-15T07:33:20;8.10;67.70
4578;DHT22;2301;47.354;8.528;2023-02-15T07:35:50;7.80;68.00
4578;DHT22;2301;47.354;8.528;2023-02-15T07:38:18;7.40;68.40
4578;DHT22;2301;47.354;8.528;2023-02-15T07:40:46;7.10;69.30
4578;DHT22;2301;47.354;8.528;2023-02-15T07:43:13;6.80;70.10
4578;DHT22;2301;47.354;8.528;2023-02-15T07:45:42;6.60;71.00
4578;DHT22;2301;47.354;8.528;2023-02-15T07:48:18;6.30;71.60
4578;DHT22;2301;47.354;8.528;2023-02-15T07:50:46;6.20;72.40
4578;DHT22;2301;47.354;8.528;2023-02-15T07:53:13;6.00;72.90
4578;DHT22;2301;47.354;8.528;2023-02-15T07:55:40;6.00;73.60
4578;DHT22;2301;47.354;8.528;2023-02-15T07:58:10;5.70;74.00
4578;DHT22;2301;47.354;8.528;2023-02-15T08:00:41;5.70;74.70
4578;DHT22;2301;47.354;8.528;2023-02-15T08:03:27;5.50;74.80
4578;DHT22;2301;47.354;8.528;2023-02-15T08:05:56;5.40;75.50
4578;DHT22;2301;47.354;8.528;2023-02-15T08:08:25;5.30;76.00
4578;DHT22;2301;47.354;8.528;2023-02-15T08:10:59;5.30;76.50
4578;DHT22;2301;47.354;8.528;2023-02-15T08:13:46;5.20;76.80
4578;DHT22;2301;47.354;8.528;2023-02-15T08:16:20;5.00;77.40
4578;DHT22;2301;47.354;8.528;2023-02-15T08:18:47;5.00;77.90
4578;DHT22;2301;47.354;8.528;2023-02-15T08:21:14;4.90;78.30
4578;DHT22;2301;47.354;8.528;2023-02-15T08:23:41;4.90;78.60
4578;DHT22;2301;47.354;8.528;2023-02-15T08:26:08;4.80;78.70
4578;DHT22;2301;47.354;8.528;2023-02-15T08:28:35;4.70;79.00
4578;DHT22;2301;47.354;8.528;2023-02-15T08:31:07;4.70;79.40
4578;DHT22;2301;47.354;8.528;2023-02-15T08:33:36;4.60;79.70
4578;DHT22;2301;47.354;8.528;2023-02-15T08:36:04;4.60;80.20
4578;DHT22;2301;47.354;8.528;2023-02-15T08:38:31;4.50;80.50
4578;DHT22;2301;47.354;8.528;2023-02-15T08:41:09;4.50;80.70
4578;DHT22;2301;47.354;8.528;2023-02-15T08:43:37;4.50;81.00
4578;DHT22;2301;47.354;8.528;2023-02-15T08:46:11;4.50;81.40
4578;DHT22;2301;47.354;8.528;2023-02-15T08:48:41;4.50;81.70
4578;DHT22;2301;47.354;8.528;2023-02-15T08:51:12;4.50;82.00
4578;DHT22;2301;47.354;8.528;2023-02-15T08:53:42;4.40;82.20
4578;DHT22;2301;47.354;8.528;2023-02-15T08:56:10;4.40;82.60
4578;DHT22;2301;47.354;8.528;2023-02-15T08:58:37;4.40;82.80
4578;DHT22;2301;47.354;8.528;2023-02-15T09:01:13;4.30;83.10
4578;DHT22;2301;47.354;8.528;2023-02-15T09:03:44;4.50;83.60
4578;DHT22;2301;47.354;8.528;2023-02-15T09:06:11;4.40;83.50
4578;DHT22;2301;47.354;8.528;2023-02-15T09:08:39;4.50;83.90
4578;DHT22;2301;47.354;8.528;2023-02-15T09:11:10;4.40;84.10
4578;DHT22;2301;47.354;8.528;2023-02-15T09:13:38;4.40;84.40
4578;DHT22;2301;47.354;8.528;2023-02-15T09:16:07;4.60;84.60
4578;DHT22;2301;47.354;8.528;2023-02-15T09:18:37;4.60;84.50
4578;DHT22;2301;47.354;8.528;2023-02-15T09:21:09;4.70;84.70
4578;DHT22;2301;47.354;8.528;2023-02-15T09:23:36;4.70;84.70
4578;DHT22;2301;47.354;8.528;2023-02-15T09:26:05;4.70;84.60
4578;DHT22;2301;47.354;8.528;2023-02-15T09:28:33;4.70;84.60
4578;DHT22;2301;47.354;8.528;2023-02-15T09:31:12;4.60;84.40
4578;DHT22;2301;47.354;8.528;2023-02-15T09:33:45;4.70;84.30
4578;DHT22;2301;47.354;8.528;2023-02-15T09:36:17;4.60;84.30
4578;DHT22;2301;47.354;8.528;2023-02-15T09:38:52;4.60;84.50
4578;DHT22;2301;47.354;8.528;2023-02-15T09:41:47;4.60;84.70
4578;DHT22;2301;47.354;8.528;2023-02-15T09:44:28;4.60;85.20
4578;DHT22;2301;47.354;8.528;2023-02-15T09:47:26;4.60;85.50
4578;DHT22;2301;47.354;8.528;2023-02-15T09:50:06;4.70;86.00
4578;DHT22;2301;47.354;8.528;2023-02-15T09:52:54;4.50;85.80
4578;DHT22;2301;47.354;8.528;2023-02-15T09:55:39;4.60;85.90
4578;DHT22;2301;47.354;8.528;2023-02-15T09:58:18;4.70;86.30
4578;DHT22;2301;47.354;8.528;2023-02-15T10:00:53;4.70;86.30
4578;DHT22;2301;47.354;8.528;2023-02-15T10:03:33;4.80;86.40
4578;DHT22;2301;47.354;8.528;2023-02-15T10:06:21;4.80;86.60
4578;DHT22;2301;47.354;8.528;2023-02-15T10:12:06;5.00;86.60
4578;DHT22;2301;47.354;8.528;2023-02-15T10:14:53;5.00;86.60
4578;DHT22;2301;47.354;8.528;2023-02-15T10:17:35;5.10;86.80
4578;DHT22;2301;47.354;8.528;2023-02-15T10:20:16;5.10;86.50
4578;DHT22;2301;47.354;8.528;2023-02-15T10:22:58;5.10;87.20
4578;DHT22;2301;47.354;8.528;2023-02-15T10:25:34;5.20;86.50
4578;DHT22;2301;47.354;8.528;2023-02-15T10:28:05;5.20;86.50
4578;DHT22;2301;47.354;8.528;2023-02-15T10:30:41;5.20;86.30
4578;DHT22;2301;47.354;8.528;2023-02-15T10:33:20;5.10;86.20
4578;DHT22;2301;47.354;8.528;2023-02-15T10:35:59;5.20;86.60
4578;DHT22;2301;47.354;8.528;2023-02-15T10:38:36;5.20;86.60
4578;DHT22;2301;47.354;8.528;2023-02-15T10:41:17;5.30;86.70
4578;DHT22;2301;47.354;8.528;2023-02-15T10:44:04;5.20;86.50
4578;DHT22;2301;47.354;8.528;2023-02-15T10:46:45;5.30;86.80
4578;DHT22;2301;47.354;8.528;2023-02-15T10:49:38;5.20;86.80
4578;DHT22;2301;47.354;8.528;2023-02-15T10:52:19;5.30;87.00
4578;DHT22;2301;47.354;8.528;2023-02-15T10:55:02;5.50;87.00
4578;DHT22;2301;47.354;8.528;2023-02-15T10:57:39;5.40;86.70
4578;DHT22;2301;47.354;8.528;2023-02-15T11:00:13;5.40;86.60
4578;DHT22;2301;47.354;8.528;2023-02-15T11:02:56;5.50;86.80
4578;DHT22;2301;47.354;8.528;2023-02-15T11:05:31;5.60;87.20
4578;DHT22;2301;47.354;8.528;2023-02-15T11:08:05;5.80;87.20
4578;DHT22;2301;47.354;8.528;2023-02-15T11:10:37;5.80;86.80
4578;DHT22;2301;47.354;8.528;2023-02-15T11:13:09;6.00;86.10
4578;DHT22;2301;47.354;8.528;2023-02-15T11:15:40;6.10;86.00
4578;DHT22;2301;47.354;8.528;2023-02-15T11:18:13;6.30;86.60
4578;DHT22;2301;47.354;8.528;2023-02-15T11:20:46;6.50;86.50
4578;DHT22;2301;47.354;8.528;2023-02-15T11:23:16;6.80;86.30
4578;DHT22;2301;47.354;8.528;2023-02-15T11:25:47;7.10;86.20
4578;DHT22;2301;47.354;8.528;2023-02-15T11:28:22;7.50;86.00
4578;DHT22;2301;47.354;8.528;2023-02-15T11:30:54;7.70;85.20
4578;DHT22;2301;47.354;8.528;2023-02-15T11:33:25;8.00;84.70
4578;DHT22;2301;47.354;8.528;2023-02-15T11:35:57;8.40;84.20
4578;DHT22;2301;47.354;8.528;2023-02-15T11:38:28;8.60;83.10
4578;DHT22;2301;47.354;8.528;2023-02-15T11:41:02;8.80;82.00
4578;DHT22;2301;47.354;8.528;2023-02-15T11:43:35;9.10;81.50
4578;DHT22;2301;47.354;8.528;2023-02-15T11:46:08;9.40;80.70
4578;DHT22;2301;47.354;8.528;2023-02-15T11:48:39;9.50;78.90
4578;DHT22;2301;47.354;8.528;2023-02-15T11:51:12;9.50;77.80
4578;DHT22;2301;47.354;8.528;2023-02-15T11:53:41;9.60;76.40
4578;DHT22;2301;47.354;8.528;2023-02-15T11:56:14;9.40;76.10
4578;DHT22;2301;47.354;8.528;2023-02-15T11:58:45;9.40;76.00
4578;DHT22;2301;47.354;8.528;2023-02-15T12:01:17;9.40;75.80
4578;DHT22;2301;47.354;8.528;2023-02-15T12:03:48;9.40;75.50
4578;DHT22;2301;47.354;8.528;2023-02-15T12:06:21;9.40;75.40
4578;DHT22;2301;47.354;8.528;2023-02-15T12:08:54;9.50;75.20
4578;DHT22;2301;47.354;8.528;2023-02-15T12:11:30;9.50;75.00
4578;DHT22;2301;47.354;8.528;2023-02-15T12:14:00;9.60;74.60
4578;DHT22;2301;47.354;8.528;2023-02-15T12:16:29;9.60;74.60
4578;DHT22;2301;47.354;8.528;2023-02-15T12:19:00;9.70;74.00
4578;DHT22;2301;47.354;8.528;2023-02-15T12:21:30;9.70;74.00
4578;DHT22;2301;47.354;8.528;2023-02-15T12:24:02;9.80;73.70
4578;DHT22;2301;47.354;8.528;2023-02-15T12:26:33;9.80;73.00
4578;DHT22;2301;47.354;8.528;2023-02-15T12:29:06;9.80;72.40
4578;DHT22;2301;47.354;8.528;2023-02-15T12:31:39;9.90;72.50
4578;DHT22;2301;47.354;8.528;2023-02-15T12:34:11;9.90;72.00
4578;DHT22;2301;47.354;8.528;2023-02-15T12:36:42;9.90;71.80
4578;DHT22;2301;47.354;8.528;2023-02-15T12:39:20;10.00;70.50
4578;DHT22;2301;47.354;8.528;2023-02-15T12:42:02;10.10;70.50
4578;DHT22;2301;47.354;8.528;2023-02-15T12:44:31;10.20;70.00
4578;DHT22;2301;47.354;8.528;2023-02-15T12:47:01;10.30;69.80
4578;DHT22;2301;47.354;8.528;2023-02-15T12:49:30;10.30;69.50
4578;DHT22;2301;47.354;8.528;2023-02-15T12:51:59;10.50;69.90
4578;DHT22;2301;47.354;8.528;2023-02-15T12:54:38;10.60;69.20
4578;DHT22;2301;47.354;8.528;2023-02-15T12:57:23;10.60;68.10
4578;DHT22;2301;47.354;8.528;2023-02-15T12:59:53;10.60;67.80
4578;DHT22;2301;47.354;8.528;2023-02-15T13:02:26;10.60;67.80
4578;DHT22;2301;47.354;8.528;2023-02-15T13:04:54;10.70;67.80
4578;DHT22;2301;47.354;8.528;2023-02-15T13:07:25;10.70;67.70
4578;DHT22;2301;47.354;8.528;2023-02-15T13:09:57;10.70;67.30
4578;DHT22;2301;47.354;8.528;2023-02-15T13:12:28;10.70;66.90
4578;DHT22;2301;47.354;8.528;2023-02-15T13:14:58;10.80;67.10
4578;DHT22;2301;47.354;8.528;2023-02-15T13:17:31;10.80;67.00
4578;DHT22;2301;47.354;8.528;2023-02-15T13:20:05;10.70;66.30
4578;DHT22;2301;47.354;8.528;2023-02-15T13:22:40;10.70;66.20
4578;DHT22;2301;47.354;8.528;2023-02-15T13:25:13;10.70;66.10
4578;DHT22;2301;47.354;8.528;2023-02-15T13:27:44;10.80;66.20
4578;DHT22;2301;47.354;8.528;2023-02-15T13:30:22;10.80;66.40
4578;DHT22;2301;47.354;8.528;2023-02-15T13:32:54;10.90;67.00
4578;DHT22;2301;47.354;8.528;2023-02-15T13:35:22;11.00;66.70
4578;DHT22;2301;47.354;8.528;2023-02-15T13:38:01;11.10;66.40
4578;DHT22;2301;47.354;8.528;2023-02-15T13:40:34;11.20;66.40
4578;DHT22;2301;47.354;8.528;2023-02-15T13:43:16;11.30;66.10
4578;DHT22;2301;47.354;8.528;2023-02-15T13:45:58;11.40;65.90
4578;DHT22;2301;47.354;8.528;2023-02-15T13:48:36;11.40;65.90
4578;DHT22;2301;47.354;8.528;2023-02-15T13:51:13;11.40;66.00
4578;DHT22;2301;47.354;8.528;2023-02-15T13:56:53;11.50;65.70
4578;DHT22;2301;47.354;8.528;2023-02-15T13:59:42;11.50;65.50
4578;DHT22;2301;47.354;8.528;2023-02-15T14:02:37;11.50;65.10
4578;DHT22;2301;47.354;8.528;2023-02-15T14:05:28;11.50;64.80
4578;DHT22;2301;47.354;8.528;2023-02-15T14:08:04;11.40;64.90
4578;DHT22;2301;47.354;8.528;2023-02-15T14:10:44;11.40;65.10
4578;DHT22;2301;47.354;8.528;2023-02-15T14:13:35;11.40;65.50
4578;DHT22;2301;47.354;8.528;2023-02-15T14:16:15;11.40;65.60
4578;DHT22;2301;47.354;8.528;2023-02-15T14:18:47;11.50;65.40
4578;DHT22;2301;47.354;8.528;2023-02-15T14:21:18;11.40;65.50
4578;DHT22;2301;47.354;8.528;2023-02-15T14:23:56;11.40;65.60
4578;DHT22;2301;47.354;8.528;2023-02-15T14:26:34;11.40;65.60
4578;DHT22;2301;47.354;8.528;2023-02-15T14:29:15;11.50;66.40
4578;DHT22;2301;47.354;8.528;2023-02-15T14:31:47;11.50;66.20
4578;DHT22;2301;47.354;8.528;2023-02-15T14:34:19;11.40;66.00
4578;DHT22;2301;47.354;8.528;2023-02-15T14:36:49;11.50;66.10
4578;DHT22;2301;47.354;8.528;2023-02-15T14:39:25;11.40;66.20
4578;DHT22;2301;47.354;8.528;2023-02-15T14:42:18;11.40;66.10
4578;DHT22;2301;47.354;8.528;2023-02-15T14:44:51;11.40;65.60
4578;DHT22;2301;47.354;8.528;2023-02-15T14:47:24;11.30;65.40
4578;DHT22;2301;47.354;8.528;2023-02-15T14:49:53;11.30;65.40
4578;DHT22;2301;47.354;8.528;2023-02-15T14:52:20;11.30;65.50
4578;DHT22;2301;47.354;8.528;2023-02-15T14:54:58;11.40;65.90
4578;DHT22;2301;47.354;8.528;2023-02-15T14:57:27;11.20;65.10
4578;DHT22;2301;47.354;8.528;2023-02-15T14:59:57;11.20;64.90
4578;DHT22;2301;47.354;8.528;2023-02-15T15:02:29;11.20;64.70
4578;DHT22;2301;47.354;8.528;2023-02-15T15:05:08;11.20;64.30
4578;DHT22;2301;47.354;8.528;2023-02-15T15:07:43;11.20;64.30
4578;DHT22;2301;47.354;8.528;2023-02-15T15:10:44;11.20;64.80
4578;DHT22;2301;47.354;8.528;2023-02-15T15:16:31;11.10;65.50
4578;DHT22;2301;47.354;8.528;2023-02-15T15:22:41;11.10;66.30
4578;DHT22;2301;47.354;8.528;2023-02-15T15:25:11;11.10;66.40
4578;DHT22;2301;47.354;8.528;2023-02-15T15:27:47;11.10;66.50
4578;DHT22;2301;47.354;8.528;2023-02-15T15:30:48;11.00;66.80
4578;DHT22;2301;47.354;8.528;2023-02-15T15:40:04;10.90;66.90
4578;DHT22;2301;47.354;8.528;2023-02-15T15:42:48;10.80;66.50
4578;DHT22;2301;47.354;8.528;2023-02-15T15:45:45;10.70;66.20
4578;DHT22;2301;47.354;8.528;2023-02-15T15:48:36;10.70;66.10
4578;DHT22;2301;47.354;8.528;2023-02-15T15:51:06;10.60;66.40
4578;DHT22;2301;47.354;8.528;2023-02-15T15:53:41;10.60;66.80
4578;DHT22;2301;47.354;8.528;2023-02-15T15:56:14;10.50;67.30
4578;DHT22;2301;47.354;8.528;2023-02-15T15:58:44;10.30;67.60
4578;DHT22;2301;47.354;8.528;2023-02-15T16:01:12;10.30;68.30
4578;DHT22;2301;47.354;8.528;2023-02-15T16:03:49;10.20;68.90
4578;DHT22;2301;47.354;8.528;2023-02-15T16:06:27;10.10;69.70
4578;DHT22;2301;47.354;8.528;2023-02-15T16:08:56;10.00;70.20
4578;DHT22;2301;47.354;8.528;2023-02-15T16:11:24;9.90;71.80
4578;DHT22;2301;47.354;8.528;2023-02-15T16:13:52;9.90;72.20
4578;DHT22;2301;47.354;8.528;2023-02-15T16:16:24;9.80;72.40
4578;DHT22;2301;47.354;8.528;2023-02-15T16:18:53;9.80;72.70
4578;DHT22;2301;47.354;8.528;2023-02-15T16:21:23;9.70;72.60
4578;DHT22;2301;47.354;8.528;2023-02-15T16:24:18;9.60;72.70
4578;DHT22;2301;47.354;8.528;2023-02-15T16:27:07;9.60;73.10
4578;DHT22;2301;47.354;8.528;2023-02-15T16:29:37;9.50;73.60
4578;DHT22;2301;47.354;8.528;2023-02-15T16:32:05;9.40;74.30
4578;DHT22;2301;47.354;8.528;2023-02-15T16:34:33;9.30;74.70
4578;DHT22;2301;47.354;8.528;2023-02-15T16:37:16;9.20;75.30
4578;DHT22;2301;47.354;8.528;2023-02-15T16:39:46;9.20;75.80
4578;DHT22;2301;47.354;8.528;2023-02-15T16:42:15;9.10;75.80
4578;DHT22;2301;47.354;8.528;2023-02-15T16:44:43;9.10;75.80
4578;DHT22;2301;47.354;8.528;2023-02-15T16:47:15;9.00;76.00
4578;DHT22;2301;47.354;8.528;2023-02-15T16:49:46;9.00;76.00
4578;DHT22;2301;47.354;8.528;2023-02-15T16:52:19;8.90;75.80
4578;DHT22;2301;47.354;8.528;2023-02-15T16:54:51;8.90;75.70
4578;DHT22;2301;47.354;8.528;2023-02-15T16:57:21;8.80;75.50
4578;DHT22;2301;47.354;8.528;2023-02-15T16:59:49;8.80;75.50
4578;DHT22;2301;47.354;8.528;2023-02-15T17:02:19;8.70;75.20
4578;DHT22;2301;47.354;8.528;2023-02-15T17:05:04;8.70;75.10
4578;DHT22;2301;47.354;8.528;2023-02-15T17:07:32;8.70;75.10
4578;DHT22;2301;47.354;8.528;2023-02-15T17:10:01;8.70;75.40
4578;DHT22;2301;47.354;8.528;2023-02-15T17:12:44;8.60;76.00